Time;durP1;ratioP1;P1;durP2;ratioP2;P2;SDS_P1;SDS_P2;PMS_P1;PMS_P2;Temp;Humidity;BMP_temperature;BMP_pressure;BME280_temperature;BME280_humidity;BME280_pressure;Samples;Min_cycle;Max_cycle;Signal;HPM_P1;HPM_P2
2023/08/09 00:00:08;;;;;;;2.63;2.37;;;;;;;16.88;88.45;155699.63;5027976;28;20455;-81
2023/08/09 00:02:34;;;;;;;3.87;2.40;;;;;;;16.89;89.97;155702.19;5022175;28;20456;-82
2023/08/09 00:05:01;;;;;;;3.37;2.80;;;;;;;16.87;89.12;155695.69;5027175;28;20942;-81
2023/08/09 00:07:27;;;;;;;7.03;2.80;;;;;;;16.84;88.96;155689.19;5008604;28;20460;-81
2023/08/09 00:09:54;;;;;;;3.30;2.80;;;;;;;16.88;89.67;155698.31;5025513;28;20510;-81
2023/08/09 00:12:21;;;;;;;3.30;2.50;;;;;;;16.86;89.47;155694.41;5023615;28;20455;-82
2023/08/09 00:14:47;;;;;;;3.17;2.50;;;;;;;16.89;92.45;155700.94;5004847;28;20463;-82
2023/08/09 00:17:15;;;;;;;3.20;2.90;;;;;;;16.87;92.74;155697.00;5011249;28;20478;-81
2023/08/09 00:19:42;;;;;;;3.17;2.77;;;;;;;16.86;93.85;155694.41;5023668;28;20842;-81
2023/08/09 00:22:09;;;;;;;2.70;2.50;;;;;;;16.83;93.52;155686.59;5027571;28;20459;-81
2023/08/09 00:24:35;;;;;;;2.90;2.33;;;;;;;16.82;93.80;155682.69;4994929;28;20998;-81
2023/08/09 00:27:02;;;;;;;3.30;2.70;;;;;;;16.78;93.21;155673.59;5028150;28;20454;-81
2023/08/09 00:29:29;;;;;;;2.73;2.53;;;;;;;16.78;93.88;155673.59;5004127;28;20547;-82
2023/08/09 00:31:56;;;;;;;2.67;2.47;;;;;;;16.75;94.33;155665.78;5025535;28;21001;-81
2023/08/09 00:34:25;;;;;;;3.57;2.57;;;;;;;16.71;93.59;155654.03;5011075;28;20976;-81
2023/08/09 00:36:52;;;;;;;3.30;3.00;;;;;;;16.70;93.49;155651.47;5011566;28;20432;-81
2023/08/09 00:39:18;;;;;;;2.83;2.53;;;;;;;16.64;93.07;155637.16;5018144;28;20459;-81
2023/08/09 00:41:45;;;;;;;3.93;2.77;;;;;;;16.65;92.91;155638.47;5025183;28;20463;-81
2023/08/09 00:44:12;;;;;;;3.70;3.13;;;;;;;16.65;94.45;155638.47;5049406;28;20443;-81
2023/08/09 00:46:38;;;;;;;2.93;2.37;;;;;;;16.66;97.13;155641.03;5049216;28;20801;-81
2023/08/09 00:49:06;;;;;;;2.60;2.30;;;;;;;16.57;95.81;155618.97;5002744;28;20725;-82
2023/08/09 00:51:35;;;;;;;3.83;2.30;;;;;;;16.58;97.72;155621.53;5023535;28;20452;-82
2023/08/09 00:54:02;;;;;;;3.30;3.00;;;;;;;16.57;97.91;155617.66;5026394;28;20444;-82
2023/08/09 00:56:30;;;;;;;3.43;2.33;;;;;;;16.50;97.33;155600.66;5020933;28;20515;-82
2023/08/09 00:58:56;;;;;;;2.70;2.03;;;;;;;16.51;97.80;155603.28;5008954;28;20458;-82
2023/08/09 01:01:23;;;;;;;3.10;2.30;;;;;;;16.50;98.16;155600.66;5021362;28;20559;-82
2023/08/09 01:03:50;;;;;;;2.47;2.23;;;;;;;16.48;99.13;155595.47;5018410;28;20499;-82
2023/08/09 01:06:21;;;;;;;5.87;2.70;;;;;;;16.44;99.39;155586.38;5019151;28;20782;-82
2023/08/09 01:08:53;;;;;;;3.60;2.43;;;;;;;16.42;99.36;155579.88;5008901;28;20525;-82
2023/08/09 01:11:25;;;;;;;2.83;2.23;;;;;;;16.41;99.81;155578.56;4990363;28;20448;-82
2023/08/09 01:13:52;;;;;;;3.13;2.83;;;;;;;16.39;99.59;155572.06;5011000;28;20460;-82
2023/08/09 01:16:21;;;;;;;3.47;2.87;;;;;;;16.38;99.94;155569.47;5003434;28;20452;-82
2023/08/09 01:18:48;;;;;;;3.50;2.80;;;;;;;16.34;98.80;155560.34;5009345;28;20452;-83
2023/08/09 01:21:18;;;;;;;4.37;2.90;;;;;;;16.32;98.76;155555.16;5026562;28;20550;-82
2023/08/09 01:23:47;;;;;;;3.00;2.70;;;;;;;16.32;98.03;155553.84;5026090;28;20510;-84
2023/08/09 01:26:13;;;;;;;3.77;2.73;;;;;;;16.31;98.61;155551.25;5024486;28;20472;-83
2023/08/09 01:28:40;;;;;;;3.30;2.70;;;;;;;16.35;99.89;155561.66;5026670;28;20479;-82
2023/08/09 01:31:07;;;;;;;3.40;2.70;;;;;;;16.26;97.78;155538.25;5010223;28;20950;-83
2023/08/09 01:33:34;;;;;;;2.70;2.47;;;;;;;16.31;99.75;155551.25;5022731;28;20456;-83
2023/08/09 01:36:04;;;;;;;3.93;2.67;;;;;;;16.26;99.77;155538.25;5022999;28;20452;-82
2023/08/09 01:38:36;;;;;;;3.30;3.00;;;;;;;16.26;100.00;155538.25;4989790;28;20464;-83
2023/08/09 01:41:05;;;;;;;2.70;2.23;;;;;;;16.20;99.83;155523.94;5013458;28;20452;-82
2023/08/09 01:43:31;;;;;;;3.90;2.83;;;;;;;16.21;100.00;155526.53;5006165;28;21004;-82
2023/08/09 01:45:59;;;;;;;3.20;2.87;;;;;;;16.20;100.00;155522.66;5010278;28;20478;-81
2023/08/09 01:48:26;;;;;;;3.53;3.23;;;;;;;16.21;100.00;155525.25;5008614;28;21001;-81
2023/08/09 01:50:53;;;;;;;3.00;2.70;;;;;;;16.14;100.00;155507.06;5024403;28;20447;-82
2023/08/09 01:53:19;;;;;;;4.43;2.73;;;;;;;16.12;100.00;155501.88;5023799;28;20468;-82
2023/08/09 01:55:46;;;;;;;3.37;3.07;;;;;;;16.11;100.00;155499.25;5025685;28;20452;-82
2023/08/09 01:58:14;;;;;;;3.90;2.80;;;;;;;16.08;100.00;155491.44;5005584;28;20482;-81
2023/08/09 02:00:41;;;;;;;3.90;2.93;;;;;;;16.07;100.00;155488.88;4992512;28;20543;-81
2023/08/09 02:03:07;;;;;;;3.83;2.83;;;;;;;16.07;100.00;155488.88;5026287;28;20453;-82
2023/08/09 02:05:34;;;;;;;4.23;3.27;;;;;;;16.06;100.00;155486.25;5023955;28;20483;-81
2023/08/09 02:08:00;;;;;;;2.90;2.60;;;;;;;16.02;100.00;155475.88;4989838;28;20460;-81
2023/08/09 02:10:27;;;;;;;3.27;2.83;;;;;;;15.99;100.00;155468.06;5020206;28;20464;-82
2023/08/09 02:12:54;;;;;;;3.17;2.87;;;;;;;16.00;100.00;155471.94;5025645;28;21081;-82
2023/08/09 02:15:22;;;;;;;3.20;2.70;;;;;;;16.00;100.00;155471.94;5009244;28;20480;-81
2023/08/09 02:17:49;;;;;;;3.60;2.73;;;;;;;15.97;100.00;155462.81;5022552;28;20463;-82
2023/08/09 02:20:16;;;;;;;3.33;2.83;;;;;;;15.98;100.00;155466.75;5022835;28;20561;-81
2023/08/09 02:22:44;;;;;;;3.63;2.43;;;;;;;16.00;100.00;155471.94;5024437;28;20456;-81
2023/08/09 02:25:11;;;;;;;3.60;2.50;;;;;;;15.97;100.00;155462.81;5007926;28;20563;-81
2023/08/09 02:27:40;;;;;;;3.33;2.90;;;;;;;15.97;100.00;155462.81;5022806;28;20569;-81
2023/08/09 02:30:07;;;;;;;4.27;2.60;;;;;;;15.97;100.00;155462.81;5023641;28;20452;-81
2023/08/09 02:32:36;;;;;;;2.90;2.40;;;;;;;15.96;100.00;155460.25;5025355;28;20464;-81
2023/08/09 02:35:04;;;;;;;3.80;2.77;;;;;;;15.96;100.00;155461.56;5014781;28;20449;-81
2023/08/09 02:37:31;;;;;;;4.23;2.77;;;;;;;15.92;100.00;155449.81;5007860;28;20497;-81
2023/08/09 02:39:57;;;;;;;2.93;2.53;;;;;;;15.94;100.00;155455.06;5025361;28;20464;-81
2023/08/09 02:42:24;;;;;;;3.00;2.40;;;;;;;15.96;100.00;155461.56;5026847;28;20487;-81
2023/08/09 02:44:51;;;;;;;2.70;2.50;;;;;;;15.94;100.00;155455.06;5008635;28;20436;-81
2023/08/09 02:47:18;;;;;;;3.60;2.77;;;;;;;15.94;100.00;155455.06;5021061;28;20901;-81
2023/08/09 02:49:46;;;;;;;3.40;2.93;;;;;;;15.93;100.00;155453.75;5024069;28;20448;-82
2023/08/09 02:52:12;;;;;;;7.77;3.60;;;;;;;15.91;100.00;155447.25;5024697;28;20818;-80
2023/08/09 02:54:39;;;;;;;3.17;2.60;;;;;;;15.84;100.00;155431.63;5006850;28;20702;-81
2023/08/09 02:57:06;;;;;;;2.60;2.40;;;;;;;15.84;100.00;155431.63;5018504;28;20993;-80
2023/08/09 02:59:34;;;;;;;4.93;3.13;;;;;;;15.89;100.00;155442.00;5023968;28;20491;-80
2023/08/09 03:02:01;;;;;;;3.50;2.47;;;;;;;15.83;100.00;155429.03;5019597;28;20810;-81
2023/08/09 03:04:28;;;;;;;4.27;2.53;;;;;;;15.86;100.00;155435.50;5004622;28;20468;-81
2023/08/09 03:06:56;;;;;;;2.57;2.37;;;;;;;15.87;100.00;155438.13;5012013;28;20519;-81
2023/08/09 03:09:22;;;;;;;2.93;2.63;;;;;;;15.87;100.00;155438.13;5026394;28;20452;-81
2023/08/09 03:11:49;;;;;;;4.30;2.77;;;;;;;15.84;100.00;155431.63;5023881;28;20567;-82
2023/08/09 03:14:16;;;;;;;2.50;2.20;;;;;;;15.84;100.00;155431.63;5004882;28;20468;-82
2023/08/09 03:16:45;;;;;;;5.90;3.07;;;;;;;15.82;100.00;155426.44;5011992;28;20437;-82
2023/08/09 03:19:12;;;;;;;3.43;2.57;;;;;;;15.81;100.00;155423.81;5027040;28;20458;-81
2023/08/09 03:21:39;;;;;;;2.73;2.30;;;;;;;15.81;100.00;155423.81;5010616;28;20455;-82
2023/08/09 03:24:07;;;;;;;3.20;2.90;;;;;;;15.79;100.00;155418.63;5024739;28;20472;-81
2023/08/09 03:26:34;;;;;;;3.43;2.70;;;;;;;15.77;100.00;155413.47;5026263;28;20494;-81
2023/08/09 03:29:02;;;;;;;2.90;2.60;;;;;;;15.77;100.00;155412.13;5024774;28;20460;-81
2023/08/09 03:31:30;;;;;;;2.40;2.10;;;;;;;15.80;100.00;155419.94;5006728;28;20471;-82
2023/08/09 03:33:59;;;;;;;3.43;3.13;;;;;;;15.75;100.00;155406.97;5012458;28;20473;-82
2023/08/09 03:36:26;;;;;;;3.40;2.63;;;;;;;15.75;100.00;155408.22;5029126;28;20452;-81
2023/08/09 03:38:52;;;;;;;3.10;2.77;;;;;;;15.75;100.00;155408.22;5027310;28;20467;-81
2023/08/09 03:41:21;;;;;;;2.73;2.43;;;;;;;15.75;100.00;155408.22;5012296;28;20451;-81
2023/08/09 03:43:47;;;;;;;3.60;2.60;;;;;;;15.77;100.00;155412.13;5012706;28;20450;-82
2023/08/09 03:46:14;;;;;;;4.20;2.43;;;;;;;15.75;100.00;155406.97;5006477;28;20480;-82
2023/08/09 03:48:40;;;;;;;6.97;2.67;;;;;;;15.74;100.00;155405.66;5012422;28;20452;-81
2023/08/09 03:51:08;;;;;;;2.60;2.30;;;;;;;15.76;100.00;155410.84;5014391;28;20439;-81
2023/08/09 03:53:34;;;;;;;3.17;2.70;;;;;;;15.76;100.00;155410.84;5017933;28;20458;-82
2023/08/09 03:56:01;;;;;;;3.80;2.70;;;;;;;15.73;100.00;155403.03;5013827;28;20458;-81
2023/08/09 03:58:29;;;;;;;2.80;2.50;;;;;;;15.73;100.00;155403.03;5009727;28;20466;-81
2023/08/09 04:00:56;;;;;;;2.87;2.30;;;;;;;15.73;100.00;155401.72;5010058;28;20447;-82
2023/08/09 04:03:22;;;;;;;3.20;2.50;;;;;;;15.70;100.00;155395.22;5027357;28;20479;-81
2023/08/09 04:05:49;;;;;;;2.90;2.63;;;;;;;15.73;100.00;155403.03;5007025;28;20483;-81
2023/08/09 04:08:16;;;;;;;2.50;2.17;;;;;;;15.70;100.00;155395.22;5024194;28;20456;-81
2023/08/09 04:10:42;;;;;;;3.43;2.43;;;;;;;15.70;100.00;155395.22;5010145;28;20570;-81
2023/08/09 04:13:09;;;;;;;2.63;2.43;;;;;;;15.74;100.00;155404.34;5030191;28;20475;-81
2023/08/09 04:15:37;;;;;;;3.23;2.17;;;;;;;15.70;100.00;155395.22;5016465;28;20669;-81
2023/08/09 04:18:05;;;;;;;3.33;3.03;;;;;;;15.69;100.00;155391.34;5009570;28;20468;-81
2023/08/09 04:20:38;;;;;;;3.43;2.40;;;;;;;15.68;100.00;155390.03;5027042;28;20436;-81
2023/08/09 04:23:05;;;;;;;3.10;2.40;;;;;;;15.64;100.00;155379.66;5031223;28;20830;-81
2023/08/09 04:25:31;;;;;;;2.60;2.17;;;;;;;15.65;100.00;155382.22;5027162;28;20452;-81
2023/08/09 04:27:59;;;;;;;2.80;2.43;;;;;;;15.65;100.00;155380.91;5030147;28;20464;-82
2023/08/09 04:30:25;;;;;;;3.50;2.53;;;;;;;15.63;100.00;155377.03;5030748;28;20458;-81
2023/08/09 04:32:53;;;;;;;2.67;2.23;;;;;;;15.63;100.00;155377.03;5013027;28;20463;-82
2023/08/09 04:35:20;;;;;;;3.17;2.53;;;;;;;15.63;100.00;155375.72;5030177;28;20583;-81
2023/08/09 04:37:47;;;;;;;2.50;2.30;;;;;;;15.64;100.00;155378.34;5029394;28;20471;-80
2023/08/09 04:40:13;;;;;;;5.80;2.50;;;;;;;15.60;100.00;155369.22;5031361;28;20444;-81
2023/08/09 04:42:40;;;;;;;3.03;2.40;;;;;;;15.59;100.00;155366.66;5029429;28;20455;-79
2023/08/09 04:45:09;;;;;;;2.97;2.60;;;;;;;15.62;100.00;155374.41;5024833;28;20472;-80
2023/08/09 04:47:35;;;;;;;3.23;2.50;;;;;;;15.63;100.00;155377.03;5022084;28;20479;-80
2023/08/09 04:50:04;;;;;;;2.90;2.60;;;;;;;15.62;100.00;155374.41;5032361;28;20463;-81
2023/08/09 04:52:30;;;;;;;2.80;2.50;;;;;;;15.63;100.00;155377.03;5030274;28;20456;-81
2023/08/09 04:54:57;;;;;;;3.10;2.50;;;;;;;15.60;100.00;155369.22;5025960;28;21222;-80
2023/08/09 04:57:24;;;;;;;2.37;2.13;;;;;;;15.60;100.00;155367.91;5028649;28;20448;-81
2023/08/09 04:59:51;;;;;;;2.30;2.10;;;;;;;15.59;100.00;155366.66;5029846;28;20456;-80
2023/08/09 05:02:17;;;;;;;2.70;2.00;;;;;;;15.58;100.00;155364.03;5019864;28;20467;-80
2023/08/09 05:04:44;;;;;;;3.70;2.30;;;;;;;15.56;100.00;155357.56;5018257;28;20523;-80
2023/08/09 05:07:12;;;;;;;2.47;2.27;;;;;;;15.59;100.00;155366.66;5019074;28;20468;-81
2023/08/09 05:09:39;;;;;;;3.33;2.60;;;;;;;15.63;100.00;155375.72;5020265;28;20480;-81
2023/08/09 05:12:06;;;;;;;3.20;2.47;;;;;;;15.63;100.00;155377.03;5019369;28;20464;-81
2023/08/09 05:14:33;;;;;;;2.87;2.57;;;;;;;15.65;100.00;155382.22;5021421;28;20456;-81
2023/08/09 05:16:59;;;;;;;2.67;2.47;;;;;;;15.67;100.00;155387.41;5020171;28;20448;-80
2023/08/09 05:19:26;;;;;;;2.77;2.30;;;;;;;15.64;100.00;155379.66;5017269;28;20488;-80
2023/08/09 05:21:53;;;;;;;2.80;2.20;;;;;;;15.64;100.00;155379.66;5003502;28;20436;-81
2023/08/09 05:24:21;;;;;;;3.20;2.53;;;;;;;15.68;100.00;155390.03;5017302;28;20957;-82
2023/08/09 05:26:48;;;;;;;2.27;2.07;;;;;;;15.63;100.00;155375.72;5019951;28;20479;-81
2023/08/09 05:29:14;;;;;;;3.10;2.40;;;;;;;15.66;100.00;155384.84;5021649;28;20559;-81
2023/08/09 05:31:41;;;;;;;3.00;2.70;;;;;;;15.65;100.00;155382.22;5020418;28;20456;-81
2023/08/09 05:34:08;;;;;;;3.60;2.40;;;;;;;15.66;100.00;155384.84;5002788;28;20467;-82
2023/08/09 05:36:34;;;;;;;3.70;2.50;;;;;;;15.66;100.00;155383.53;5020309;28;20452;-81
2023/08/09 05:39:01;;;;;;;3.37;3.03;;;;;;;15.67;100.00;155387.41;5018266;28;20827;-82
2023/08/09 05:41:29;;;;;;;2.53;2.30;;;;;;;15.61;100.00;155370.53;5021570;28;20467;-82
2023/08/09 05:43:55;;;;;;;3.33;2.50;;;;;;;15.65;100.00;155382.22;5020944;28;20987;-81
2023/08/09 05:46:22;;;;;;;2.80;2.20;;;;;;;15.69;100.00;155392.66;5019878;28;20838;-81
2023/08/09 05:48:48;;;;;;;4.30;2.43;;;;;;;15.71;100.00;155397.84;5018478;28;20472;-82
2023/08/09 05:51:15;;;;;;;2.43;2.10;;;;;;;15.72;100.00;155400.47;5019872;28;20471;-82
2023/08/09 05:53:42;;;;;;;2.20;1.93;;;;;;;15.72;100.00;155400.47;5010547;28;20554;-81
2023/08/09 05:56:08;;;;;;;3.47;2.27;;;;;;;15.70;100.00;155395.22;5013626;28;20456;-82
2023/08/09 05:58:36;;;;;;;2.73;2.17;;;;;;;15.71;100.00;155397.84;5022950;28;20818;-81
2023/08/09 06:01:04;;;;;;;3.60;2.53;;;;;;;15.75;100.00;155408.22;5023493;28;20809;-82
2023/08/09 06:03:31;;;;;;;3.17;2.30;;;;;;;15.81;100.00;155422.53;5026196;28;21025;-82
2023/08/09 06:05:57;;;;;;;3.17;2.73;;;;;;;15.81;100.00;155423.81;5016479;28;20536;-81
2023/08/09 06:08:24;;;;;;;2.00;1.80;;;;;;;15.81;100.00;155423.81;5006944;28;20464;-82
2023/08/09 06:10:51;;;;;;;2.93;1.90;;;;;;;15.82;100.00;155426.44;5013449;28;20452;-82
2023/08/09 06:13:17;;;;;;;3.27;2.40;;;;;;;15.86;100.00;155434.25;5014998;28;20467;-82
2023/08/09 06:15:45;;;;;;;3.10;2.30;;;;;;;15.90;100.00;155444.63;5020671;28;20451;-82
2023/08/09 06:18:12;;;;;;;2.90;2.20;;;;;;;15.90;100.00;155444.63;5018772;28;20451;-81
2023/08/09 06:20:38;;;;;;;2.63;1.97;;;;;;;15.91;100.00;155448.56;5016874;28;20455;-81
2023/08/09 06:23:05;;;;;;;3.00;2.23;;;;;;;15.94;100.00;155455.06;5016210;28;21862;-81
2023/08/09 06:25:32;;;;;;;3.10;2.17;;;;;;;15.94;100.00;155455.06;5022427;28;20935;-81
2023/08/09 06:28:00;;;;;;;2.80;2.20;;;;;;;15.96;100.00;155460.25;5020832;28;20913;-81
2023/08/09 06:30:26;;;;;;;3.43;2.73;;;;;;;16.01;100.00;155473.25;5021851;28;20514;-81
2023/08/09 06:32:54;;;;;;;3.47;2.63;;;;;;;16.05;100.00;155484.94;5019963;28;20462;-81
2023/08/09 06:35:21;;;;;;;3.67;2.37;;;;;;;16.10;100.00;155496.63;5012226;28;20455;-81
2023/08/09 06:37:48;;;;;;;3.47;2.10;;;;;;;16.06;100.00;155486.25;5007921;28;21968;-82
2023/08/09 06:40:16;;;;;;;2.30;2.00;;;;;;;16.12;100.00;155503.16;5026554;28;20456;-81
2023/08/09 06:42:43;;;;;;;2.80;2.30;;;;;;;16.12;100.00;155501.88;5021192;28;20477;-81
2023/08/09 06:45:12;;;;;;;3.07;2.40;;;;;;;16.14;100.00;155508.38;5004763;28;20551;-81
2023/08/09 06:47:39;;;;;;;2.30;2.00;;;;;;;16.20;100.00;155522.66;5015879;28;20487;-81
2023/08/09 06:50:08;;;;;;;2.73;2.30;;;;;;;16.29;100.00;155546.06;5014773;28;20453;-81
2023/08/09 06:52:36;;;;;;;2.83;1.90;;;;;;;16.32;100.00;155553.84;4999303;28;20480;-81
2023/08/09 06:55:03;;;;;;;2.47;2.00;;;;;;;16.41;100.00;155578.56;5016881;28;20800;-81
2023/08/09 06:57:29;;;;;;;3.47;1.87;;;;;;;16.54;100.00;155611.16;5016175;28;20459;-81
2023/08/09 06:59:56;;;;;;;2.40;2.00;;;;;;;16.59;100.00;155624.16;5016202;28;20809;-81
2023/08/09 07:02:22;;;;;;;2.20;1.33;;;;;;;16.69;100.00;155650.16;5017581;28;20455;-82
2023/08/09 07:04:53;;;;;;;7.93;2.10;;;;;;;16.70;100.00;155652.78;4998936;28;20456;-81
2023/08/09 07:07:21;;;;;;;3.03;2.20;;;;;;;16.75;99.58;155665.78;5016046;28;20479;-81
2023/08/09 07:09:48;;;;;;;2.37;2.07;;;;;;;16.89;100.00;155700.94;5015421;28;20542;-81
2023/08/09 07:12:16;;;;;;;2.20;1.90;;;;;;;16.93;99.42;155711.31;5016796;28;20452;-81
2023/08/09 07:14:43;;;;;;;2.07;1.87;;;;;;;16.95;97.63;155717.81;5015846;28;20457;-81
2023/08/09 07:17:10;;;;;;;3.10;2.23;;;;;;;17.00;97.12;155730.81;5016482;28;20463;-81
2023/08/09 07:19:36;;;;;;;2.37;1.83;;;;;;;17.01;97.03;155733.44;5017403;28;20518;-81
2023/08/09 07:22:03;;;;;;;2.40;1.73;;;;;;;16.97;95.54;155721.75;5018053;28;20460;-81
2023/08/09 07:24:31;;;;;;;2.47;2.10;;;;;;;16.99;95.11;155726.94;5015238;28;20570;-81
2023/08/09 07:26:58;;;;;;;3.30;2.00;;;;;;;17.02;96.02;155736.00;5004548;28;20529;-81
2023/08/09 07:29:24;;;;;;;4.00;1.97;;;;;;;17.00;96.29;155730.81;5017473;28;20447;-81
2023/08/09 07:31:51;;;;;;;2.33;2.13;;;;;;;17.05;95.21;155742.53;5017327;28;20523;-81
2023/08/09 07:34:18;;;;;;;2.03;1.73;;;;;;;17.12;94.93;155759.47;5015154;28;20448;-81
2023/08/09 07:36:44;;;;;;;7.33;2.30;;;;;;;17.14;94.53;155764.66;5017551;28;20455;-81
2023/08/09 07:39:10;;;;;;;3.30;2.10;;;;;;;17.22;95.35;155786.78;5015760;28;20557;-80
2023/08/09 07:41:38;;;;;;;6.07;2.40;;;;;;;17.28;98.10;155802.41;5019066;28;20225;-80
2023/08/09 07:44:05;;;;;;;2.60;2.20;;;;;;;17.25;97.41;155794.59;5017019;28;21566;-79
2023/08/09 07:46:32;;;;;;;2.20;1.97;;;;;;;17.28;94.59;155802.41;5017757;28;20459;-79
2023/08/09 07:48:58;;;;;;;3.07;1.87;;;;;;;17.29;95.92;155805.00;5018053;28;20460;-80
2023/08/09 07:51:25;;;;;;;3.93;2.40;;;;;;;17.31;95.34;155810.22;5020297;28;20459;-79
2023/08/09 07:53:51;;;;;;;5.37;2.60;;;;;;;17.33;95.99;155814.13;5019127;28;20464;-79
2023/08/09 07:56:18;;;;;;;2.30;2.10;;;;;;;17.36;95.02;155821.94;5018300;28;20463;-80
2023/08/09 07:58:46;;;;;;;2.93;2.30;;;;;;;17.44;96.02;155842.75;5019764;28;20459;-79
2023/08/09 08:01:12;;;;;;;2.67;1.77;;;;;;;17.42;96.27;155838.81;5002869;28;20451;-81
2023/08/09 08:03:39;;;;;;;2.80;2.00;;;;;;;17.43;94.65;155841.44;5023367;28;20460;-81
2023/08/09 08:06:06;;;;;;;3.80;2.30;;;;;;;17.52;94.08;155863.59;5019634;28;20539;-81
2023/08/09 08:08:32;;;;;;;2.40;2.00;;;;;;;17.62;93.33;155889.66;5022874;28;20590;-80
2023/08/09 08:10:59;;;;;;;3.70;2.40;;;;;;;17.64;93.39;155896.16;5019793;28;20461;-80
2023/08/09 08:13:26;;;;;;;2.83;2.20;;;;;;;17.67;94.08;155901.38;5024650;28;20563;-80
2023/08/09 08:15:54;;;;;;;2.53;2.13;;;;;;;17.69;95.19;155907.88;5008596;28;20471;-81
2023/08/09 08:18:22;;;;;;;4.47;2.10;;;;;;;17.68;92.02;155905.28;5019389;28;20471;-80
2023/08/09 08:20:48;;;;;;;2.93;2.03;;;;;;;17.72;93.61;155914.38;5019142;28;20845;-80
2023/08/09 08:23:15;;;;;;;5.20;2.17;;;;;;;17.71;94.22;155911.81;5018665;28;20541;-81
2023/08/09 08:25:42;;;;;;;2.30;1.97;;;;;;;17.70;95.56;155910.50;5017610;28;20453;-80
2023/08/09 08:28:08;;;;;;;4.13;1.90;;;;;;;17.67;95.09;155901.38;5019790;28;20574;-81
2023/08/09 08:30:36;;;;;;;3.10;2.10;;;;;;;17.65;94.00;155897.47;5016561;28;20448;-80
2023/08/09 08:33:05;;;;;;;5.53;2.80;;;;;;;17.66;93.47;155898.78;5020578;28;20894;-80
2023/08/09 08:35:36;;;;;;;2.30;2.10;;;;;;;17.67;93.13;155902.69;5018304;28;20449;-81
2023/08/09 08:38:06;;;;;;;2.70;2.13;;;;;;;17.67;94.16;155902.69;5021103;28;20457;-80
2023/08/09 08:40:33;;;;;;;6.30;2.00;;;;;;;17.68;93.62;155905.28;5017003;28;20547;-80
2023/08/09 08:43:00;;;;;;;3.97;2.10;;;;;;;17.75;90.09;155923.50;5019748;28;20449;-80
2023/08/09 08:45:26;;;;;;;3.60;2.27;;;;;;;17.82;89.51;155941.72;5018622;28;20565;-81
2023/08/09 08:47:53;;;;;;;2.63;2.03;;;;;;;17.85;90.45;155948.22;5008321;28;20468;-80
2023/08/09 08:50:21;;;;;;;2.13;1.93;;;;;;;17.84;90.52;155945.66;5019384;28;20453;-81
2023/08/09 08:52:51;;;;;;;4.50;2.40;;;;;;;17.81;90.11;155939.16;5018025;28;20483;-81
2023/08/09 08:55:18;;;;;;;5.03;2.30;;;;;;;17.83;89.37;155944.34;5018911;28;20444;-81
2023/08/09 08:57:47;;;;;;;3.80;2.43;;;;;;;17.84;92.48;155946.97;5020741;28;20985;-80
2023/08/09 09:00:16;;;;;;;4.37;1.80;;;;;;;17.82;89.78;155940.44;5016339;28;20452;-81
2023/08/09 09:02:43;;;;;;;3.80;2.40;;;;;;;17.90;95.18;155962.56;5017465;28;20467;-81
2023/08/09 09:05:10;;;;;;;2.23;1.93;;;;;;;17.79;94.56;155933.91;5019284;28;20874;-81
2023/08/09 09:07:39;;;;;;;2.47;2.00;;;;;;;17.79;92.50;155932.63;5020585;28;20485;-80
2023/08/09 09:10:09;;;;;;;2.30;1.87;;;;;;;17.75;92.53;155923.50;5019060;28;20455;-80
2023/08/09 09:12:36;;;;;;;2.33;2.13;;;;;;;17.80;91.37;155936.53;5017469;28;20551;-80
2023/08/09 09:15:04;;;;;;;2.60;2.37;;;;;;;17.89;92.45;155959.97;5019394;28;20451;-81
2023/08/09 09:17:30;;;;;;;7.00;2.50;;;;;;;17.93;93.17;155970.38;5018611;28;20439;-80
2023/08/09 09:19:57;;;;;;;3.37;2.20;;;;;;;17.99;91.12;155984.69;5017307;28;20452;-81
2023/08/09 09:22:28;;;;;;;2.40;2.10;;;;;;;18.07;91.18;156006.84;5018497;28;20460;-81
2023/08/09 09:24:59;;;;;;;3.40;2.30;;;;;;;18.16;93.80;156029.00;5019640;28;20722;-81
2023/08/09 09:27:30;;;;;;;2.50;2.20;;;;;;;18.19;94.25;156038.09;5017828;28;20476;-80
2023/08/09 09:30:00;;;;;;;2.97;2.10;;;;;;;18.17;89.88;156031.56;5019110;28;20484;-81
2023/08/09 09:32:27;;;;;;;2.20;2.00;;;;;;;18.26;91.03;156055.03;5020250;28;20448;-81
2023/08/09 09:34:54;;;;;;;5.00;2.27;;;;;;;18.42;88.07;156095.41;5020724;28;21017;-81
2023/08/09 09:37:23;;;;;;;3.17;2.40;;;;;;;18.54;87.49;156126.69;5018045;28;20533;-81
2023/08/09 09:39:51;;;;;;;3.17;2.23;;;;;;;18.61;90.09;156144.97;5018834;28;20792;-81
2023/08/09 09:42:30;;;;;;;2.80;2.50;;;;;;;18.63;89.76;156150.16;5018107;28;20983;-81
2023/08/09 09:45:04;;;;;;;2.17;1.60;;;;;;;18.59;88.47;156139.72;5019543;28;20447;-79
2023/08/09 09:47:39;;;;;;;2.63;2.10;;;;;;;18.61;91.07;156144.97;5017031;28;20849;-80
2023/08/09 09:50:08;;;;;;;3.27;2.73;;;;;;;18.58;85.86;156138.44;5018871;28;20487;-80
2023/08/09 09:52:38;;;;;;;3.00;2.00;;;;;;;18.66;85.90;156159.31;5017498;28;20989;-80
2023/08/09 09:55:10;;;;;;;4.50;2.50;;;;;;;18.75;89.42;156181.41;5018127;28;20463;-80
2023/08/09 09:57:42;;;;;;;2.83;2.57;;;;;;;18.76;87.41;156184.03;5001672;28;20460;-80
2023/08/09 10:00:14;;;;;;;3.07;2.77;;;;;;;18.81;88.00;156197.06;5019018;28;20448;-79
2023/08/09 10:02:46;;;;;;;2.40;2.20;;;;;;;18.85;88.80;156207.47;5019349;28;20447;-80
2023/08/09 10:05:14;;;;;;;2.77;2.40;;;;;;;18.87;90.53;156212.72;5018131;28;20492;-80
2023/08/09 10:07:42;;;;;;;3.37;2.30;;;;;;;18.86;87.13;156210.09;5020031;28;20542;-80
2023/08/09 10:10:10;;;;;;;3.30;2.17;;;;;;;18.92;87.41;156225.72;5003119;28;20535;-79
2023/08/09 10:13:12;;;;;;;2.93;2.03;;;;;;;19.05;88.37;156259.59;5092343;23;20911;-82
2023/08/09 10:15:46;;;;;;;5.50;2.57;;;;;;;19.09;87.72;156270.00;5004329;28;20518;-83
2023/08/09 10:18:18;;;;;;;3.67;2.47;;;;;;;19.16;87.67;156288.28;5004132;28;20455;-83
2023/08/09 10:20:50;;;;;;;3.17;2.50;;;;;;;19.12;86.58;156276.53;4995043;28;20488;-84
2023/08/09 10:23:21;;;;;;;3.67;1.90;;;;;;;19.16;87.73;156286.97;5002704;28;20473;-83
2023/08/09 10:25:50;;;;;;;3.10;2.33;;;;;;;19.14;83.59;156283.03;5000343;28;20552;-83
2023/08/09 10:28:20;;;;;;;2.93;2.27;;;;;;;19.19;85.82;156294.81;5002355;28;20481;-83
2023/08/09 10:30:48;;;;;;;3.10;2.60;;;;;;;19.15;88.15;156285.66;5002205;28;20455;-83
2023/08/09 10:33:18;;;;;;;3.23;2.00;;;;;;;19.10;86.41;156271.31;5053642;23;20480;-82
2023/08/09 10:35:48;;;;;;;3.33;2.33;;;;;;;19.07;87.96;156264.81;5045119;28;20412;-82
2023/08/09 10:38:16;;;;;;;2.60;2.40;;;;;;;19.06;88.97;156262.19;5028273;28;20636;-82
2023/08/09 10:40:43;;;;;;;3.70;2.33;;;;;;;19.04;85.16;156255.66;5045390;28;20463;-82
2023/08/09 10:43:20;;;;;;;2.70;2.40;;;;;;;19.08;87.62;156267.44;5012158;28;20432;-82
2023/08/09 10:45:48;;;;;;;2.50;2.00;;;;;;;19.07;89.76;156264.81;5011940;28;20555;-81
2023/08/09 10:48:21;;;;;;;7.47;2.67;;;;;;;19.05;87.63;156258.28;5044197;28;20507;-82
2023/08/09 10:51:01;;;;;;;2.17;1.97;;;;;;;19.02;89.54;156250.47;5027983;28;20717;-82
2023/08/09 10:53:28;;;;;;;4.70;2.10;;;;;;;19.06;88.50;156262.19;5044023;28;20454;-82
2023/08/09 10:55:57;;;;;;;6.17;2.70;;;;;;;19.14;89.97;156283.03;5027603;28;20440;-82
2023/08/09 10:58:29;;;;;;;2.93;2.43;;;;;;;19.27;88.12;156316.91;5061130;28;20448;-82
2023/08/09 11:00:56;;;;;;;2.90;2.13;;;;;;;19.40;87.49;156349.59;5061100;28;20472;-81
2023/08/09 11:03:23;;;;;;;2.93;2.00;;;;;;;19.57;86.97;156392.56;5011340;28;20467;-81
2023/08/09 11:05:51;;;;;;;4.67;2.10;;;;;;;19.73;86.87;156434.28;5027774;28;20441;-82
2023/08/09 11:08:21;;;;;;;2.53;2.33;;;;;;;19.92;85.52;156483.84;5060720;28;20484;-82
2023/08/09 11:10:49;;;;;;;2.90;1.93;;;;;;;20.05;84.13;156517.75;5043918;28;20523;-83
2023/08/09 11:13:18;;;;;;;7.23;3.77;;;;;;;20.31;83.54;156584.31;5060956;28;20773;-83
2023/08/09 11:15:48;;;;;;;4.30;2.37;;;;;;;20.41;82.25;156611.69;5027453;28;20440;-83
2023/08/09 11:18:18;;;;;;;2.90;2.40;;;;;;;20.49;83.32;156631.28;5061353;28;20435;-83
2023/08/09 11:20:46;;;;;;;2.60;2.10;;;;;;;20.49;80.60;156631.28;5060528;28;20479;-83
2023/08/09 11:23:13;;;;;;;2.13;1.80;;;;;;;20.50;82.35;156633.88;5045952;28;20523;-83